Porecatu, Brazil
Current Conditions -  °F | °C
As of 2:00 PM on Friday 28 Nov 2014 (Local Time) from SBLO Reporting Station
Broken Clouds Broken Clouds  
Wind Chill: 82°   Ceiling: 10000
Heat Index: 84°   Visibility: 6mi
Dew Point: 64°   Wind: 12mph
Humidity: 54%   Direction: 90°E
Pressure: 30"   Gusts: NA
Location:  22.76°S, 51.38°W
Report Text: SBLO 281600Z 09010KT 9999 SCT030 BKN100 28/18 Q1016
Loading
Personal Weather Stations






























Interactive Weather Map New forecast layout! Learn more

10-Day Weather Forecast

Advertisements
Track Severe Weather on mobile